createdAt,value
2023-01-07T00:01:07.223Z,6.69
2023-01-07T00:03:33.846Z,6.71
2023-01-07T00:06:04.236Z,6.71
2023-01-07T00:08:34.732Z,6.62
2023-01-07T00:11:02.242Z,6.69
2023-01-07T00:13:28.895Z,6.67
2023-01-07T00:16:02.312Z,6.68
2023-01-07T00:18:28.867Z,6.69
2023-01-07T00:20:58.909Z,6.58
2023-01-07T00:23:26.158Z,6.72
2023-01-07T00:25:52.925Z,6.73
2023-01-07T00:28:19.423Z,6.69
2023-01-07T00:30:46.339Z,6.72
2023-01-07T00:33:15.532Z,6.65
2023-01-07T00:35:44.705Z,6.55
2023-01-07T00:38:11.484Z,6.49
2023-01-07T00:40:38.005Z,6.56
2023-01-07T00:43:07.600Z,6.46
2023-01-07T00:45:35.503Z,6.52
2023-01-07T00:48:02.946Z,6.48
2023-01-07T00:50:31.729Z,6.32
2023-01-07T00:52:58.294Z,6.45
2023-01-07T00:55:25.065Z,6.53
2023-01-07T00:57:51.657Z,6.51
2023-01-07T01:00:19.166Z,6.45
2023-01-07T01:02:45.971Z,6.49
2023-01-07T01:05:12.637Z,6.47
2023-01-07T01:07:39.260Z,6.51
2023-01-07T01:10:07.095Z,6.42
2023-01-07T01:12:35.289Z,6.57
2023-01-07T01:15:06.370Z,6.30
2023-01-07T01:17:33.036Z,6.58
2023-01-07T01:19:59.568Z,6.48
2023-01-07T01:22:26.326Z,6.46
2023-01-07T01:24:52.822Z,6.46
2023-01-07T01:27:19.381Z,6.50
2023-01-07T01:29:45.901Z,6.52
2023-01-07T01:32:12.385Z,6.55
2023-01-07T01:34:38.979Z,6.56
2023-01-07T01:37:05.503Z,6.60
2023-01-07T01:39:32.011Z,6.62
2023-01-07T01:41:58.511Z,6.58
2023-01-07T01:44:53.149Z,6.55
2023-01-07T01:47:44.324Z,6.52
2023-01-07T01:50:18.227Z,6.49
2023-01-07T01:53:04.359Z,6.45
2023-01-07T01:55:37.890Z,6.30
2023-01-07T01:58:06.675Z,6.50
2023-01-07T02:00:33.240Z,6.45
2023-01-07T02:02:59.965Z,6.45
2023-01-07T02:05:29.710Z,6.45
2023-01-07T02:07:56.310Z,6.41
2023-01-07T02:10:23.632Z,6.44
2023-01-07T02:12:56.449Z,6.34
2023-01-07T02:15:25.895Z,6.41
2023-01-07T02:17:57.968Z,6.39
2023-01-07T02:20:27.373Z,6.34
2023-01-07T02:23:15.722Z,6.38
2023-01-07T02:25:43.294Z,6.41
2023-01-07T02:28:28.244Z,6.40
2023-01-07T02:31:13.592Z,6.40
2023-01-07T02:33:46.223Z,6.41
2023-01-07T02:36:20.479Z,6.39
2023-01-07T02:38:59.079Z,6.43
2023-01-07T02:41:34.827Z,6.40
2023-01-07T02:44:11.790Z,6.44
2023-01-07T02:46:56.659Z,6.40
2023-01-07T02:49:22.982Z,6.41
2023-01-07T02:51:49.478Z,6.43
2023-01-07T02:54:18.626Z,6.39
2023-01-07T02:56:54.131Z,6.28
2023-01-07T02:59:20.414Z,6.27
2023-01-07T03:01:51.011Z,6.25
2023-01-07T03:04:37.378Z,6.26
2023-01-07T03:07:09.529Z,6.32
2023-01-07T03:09:44.564Z,6.33
2023-01-07T03:12:10.856Z,6.33
2023-01-07T03:15:12.936Z,6.32
2023-01-07T03:17:48.611Z,6.27
2023-01-07T03:20:15.004Z,6.25
2023-01-07T03:22:41.307Z,6.22
2023-01-07T03:25:07.780Z,6.16
2023-01-07T03:27:34.676Z,6.22
2023-01-07T03:30:01.283Z,6.22
2023-01-07T03:32:29.917Z,6.16
2023-01-07T03:34:56.483Z,6.12
2023-01-07T03:37:23.477Z,6.11
2023-01-07T03:39:49.931Z,6.17
2023-01-07T03:42:38.327Z,6.19
2023-01-07T03:45:04.871Z,6.25
2023-01-07T03:47:31.201Z,6.27
2023-01-07T03:49:57.544Z,6.26
2023-01-07T03:52:23.866Z,6.21
2023-01-07T03:54:50.218Z,6.25
2023-01-07T03:57:16.596Z,6.26
2023-01-07T03:59:42.997Z,6.28
2023-01-07T04:02:09.463Z,6.26
2023-01-07T04:04:36.176Z,6.27
2023-01-07T04:07:02.567Z,6.21
2023-01-07T04:09:28.908Z,6.21
2023-01-07T04:11:55.424Z,6.18
2023-01-07T04:14:21.828Z,6.19
2023-01-07T04:16:51.043Z,5.92
2023-01-07T04:19:18.020Z,6.14
2023-01-07T04:21:44.358Z,6.17
2023-01-07T04:24:10.685Z,6.11
2023-01-07T04:26:37.037Z,6.12
2023-01-07T04:29:03.369Z,6.12
2023-01-07T04:31:29.797Z,6.11
2023-01-07T04:33:56.197Z,6.07
2023-01-07T04:36:22.582Z,6.15
2023-01-07T04:38:48.948Z,6.19
2023-01-07T04:41:15.300Z,6.18
2023-01-07T04:43:41.713Z,6.24
2023-01-07T04:46:08.160Z,6.20
2023-01-07T04:48:34.652Z,6.20
2023-01-07T04:51:01.073Z,6.24
2023-01-07T04:53:27.410Z,6.20
2023-01-07T04:55:54.049Z,6.10
2023-01-07T04:58:20.425Z,6.15
2023-01-07T05:00:46.798Z,6.13
2023-01-07T05:03:13.291Z,6.10
2023-01-07T05:05:39.634Z,6.11
2023-01-07T05:08:05.958Z,6.11
2023-01-07T05:10:33.009Z,6.14
2023-01-07T05:12:59.392Z,6.04
2023-01-07T05:15:25.861Z,6.11
2023-01-07T05:17:52.222Z,6.13
2023-01-07T05:20:18.630Z,6.15
2023-01-07T05:22:46.362Z,6.16
2023-01-07T05:25:12.840Z,6.18
2023-01-07T05:27:39.154Z,6.20
2023-01-07T05:30:05.796Z,6.22
2023-01-07T05:32:32.159Z,6.21
2023-01-07T05:34:58.857Z,6.21
2023-01-07T05:37:25.188Z,6.18
2023-01-07T05:39:51.566Z,6.18
2023-01-07T05:42:17.872Z,6.15
2023-01-07T05:44:44.285Z,6.21
2023-01-07T05:47:10.975Z,6.13
2023-01-07T05:49:37.320Z,6.07
2023-01-07T05:52:03.710Z,6.20
2023-01-07T05:54:30.123Z,6.13
2023-01-07T05:56:56.452Z,6.07
2023-01-07T05:59:22.798Z,6.04
2023-01-07T06:01:49.153Z,6.07
2023-01-07T06:04:15.487Z,6.03
2023-01-07T06:06:41.826Z,6.03
2023-01-07T06:09:08.247Z,6.05
2023-01-07T06:11:34.583Z,6.08
2023-01-07T06:14:00.969Z,6.11
2023-01-07T06:16:27.391Z,6.08
2023-01-07T06:18:53.798Z,6.08
2023-01-07T06:21:21.478Z,6.13
2023-01-07T06:23:47.979Z,6.09
2023-01-07T06:26:14.323Z,6.11
2023-01-07T06:28:40.668Z,6.14
2023-01-07T06:31:07.076Z,6.18
2023-01-07T06:33:33.747Z,6.22
2023-01-07T06:36:00.126Z,6.17
2023-01-07T06:38:26.529Z,6.25
2023-01-07T06:40:52.869Z,6.21
2023-01-07T06:43:19.184Z,6.21
2023-01-07T06:45:46.013Z,6.26
2023-01-07T06:48:12.352Z,6.30
2023-01-07T06:50:38.684Z,6.32
2023-01-07T06:53:05.532Z,6.28
2023-01-07T06:55:31.868Z,6.26
2023-01-07T06:57:58.189Z,6.27
2023-01-07T07:00:25.231Z,6.26
2023-01-07T07:02:51.584Z,6.25
2023-01-07T07:05:18.100Z,6.14
2023-01-07T07:07:44.481Z,6.20
2023-01-07T07:10:10.838Z,6.22
2023-01-07T07:12:37.934Z,6.24
2023-01-07T07:15:04.942Z,6.24
2023-01-07T07:17:31.457Z,6.22
2023-01-07T07:19:58.240Z,6.18
2023-01-07T07:22:24.699Z,6.26
2023-01-07T07:24:51.022Z,6.23
2023-01-07T07:27:17.445Z,6.22
2023-01-07T07:29:43.927Z,6.30
2023-01-07T07:32:10.275Z,6.28
2023-01-07T07:34:36.671Z,6.37
2023-01-07T07:37:03.170Z,6.36
2023-01-07T07:39:29.510Z,6.35
2023-01-07T07:41:55.850Z,6.35
2023-01-07T07:44:22.252Z,6.40
2023-01-07T07:46:48.620Z,6.43
2023-01-07T07:49:15.033Z,6.40
2023-01-07T07:51:41.398Z,6.39
2023-01-07T07:54:07.789Z,6.42
2023-01-07T07:56:34.128Z,6.36
2023-01-07T07:59:00.489Z,6.40
2023-01-07T08:01:26.969Z,6.42
2023-01-07T08:03:53.365Z,6.45
2023-01-07T08:06:19.774Z,6.45
2023-01-07T08:08:46.111Z,6.49
2023-01-07T08:11:12.440Z,6.55
2023-01-07T08:13:38.859Z,6.60
2023-01-07T08:16:05.386Z,6.64
2023-01-07T08:18:31.752Z,6.64
2023-01-07T08:20:58.216Z,6.65
2023-01-07T08:23:24.637Z,6.73
2023-01-07T08:25:51.068Z,6.73
2023-01-07T08:28:17.484Z,6.70
2023-01-07T08:30:43.933Z,6.78
2023-01-07T08:33:10.265Z,6.81
2023-01-07T08:35:36.657Z,6.85
2023-01-07T08:38:04.212Z,6.92
2023-01-07T08:40:30.607Z,6.90
2023-01-07T08:43:00.483Z,6.91
2023-01-07T08:45:27.181Z,7.02
2023-01-07T08:47:53.592Z,7.00
2023-01-07T08:50:20.354Z,7.04
2023-01-07T08:52:47.386Z,7.04
2023-01-07T08:55:13.867Z,7.00
2023-01-07T08:57:40.370Z,7.05
2023-01-07T09:00:07.123Z,7.02
2023-01-07T09:02:33.489Z,7.03
2023-01-07T09:05:00.165Z,7.06
2023-01-07T09:07:26.467Z,7.03
2023-01-07T09:09:52.789Z,7.04
2023-01-07T09:12:19.178Z,7.11
2023-01-07T09:14:45.514Z,7.14
2023-01-07T09:17:11.855Z,7.27
2023-01-07T09:19:38.308Z,7.27
2023-01-07T09:22:04.670Z,7.31
2023-01-07T09:24:31.009Z,7.39
2023-01-07T09:26:57.431Z,7.40
2023-01-07T09:29:23.745Z,7.47
2023-01-07T09:31:50.119Z,7.55
2023-01-07T09:34:16.636Z,7.50
2023-01-07T09:36:43.032Z,7.54
2023-01-07T09:39:12.401Z,7.56
2023-01-07T09:41:41.747Z,7.71
2023-01-07T09:44:28.445Z,7.77
2023-01-07T09:46:55.598Z,7.60
2023-01-07T09:49:22.262Z,7.73
2023-01-07T09:51:53.963Z,7.92
2023-01-07T09:54:26.488Z,7.99
2023-01-07T09:56:52.810Z,7.89
2023-01-07T09:59:19.233Z,7.82
2023-01-07T10:02:04.547Z,7.87
2023-01-07T10:04:36.233Z,7.98
2023-01-07T10:07:02.521Z,7.91
2023-01-07T10:09:29.048Z,7.76
2023-01-07T10:12:10.668Z,7.91
2023-01-07T10:14:49.278Z,8.04
2023-01-07T10:17:27.996Z,8.10
2023-01-07T10:19:57.518Z,8.19
2023-01-07T10:22:25.223Z,8.27
2023-01-07T10:24:53.286Z,8.34
2023-01-07T10:27:24.511Z,8.41
2023-01-07T10:29:52.902Z,8.49
2023-01-07T10:32:20.675Z,8.49
2023-01-07T10:34:47.973Z,8.52
2023-01-07T10:37:16.739Z,8.58
2023-01-07T10:39:43.034Z,8.60
2023-01-07T10:42:15.480Z,8.69
2023-01-07T10:44:47.892Z,8.69
2023-01-07T10:47:28.573Z,8.68
2023-01-07T10:49:58.072Z,8.66
2023-01-07T10:52:28.524Z,8.91
2023-01-07T10:55:00.888Z,8.99
2023-01-07T10:57:28.015Z,8.96
2023-01-07T10:59:54.830Z,9.06
2023-01-07T11:02:22.028Z,8.80
2023-01-07T11:04:48.496Z,8.67
2023-01-07T11:07:18.570Z,8.64
2023-01-07T11:09:45.453Z,8.70
2023-01-07T11:12:20.960Z,8.92
2023-01-07T11:14:47.299Z,9.33
2023-01-07T11:17:26.071Z,9.81
2023-01-07T11:19:52.511Z,9.73
2023-01-07T11:22:28.035Z,9.81
2023-01-07T11:24:54.588Z,9.37
2023-01-07T11:27:21.433Z,9.42
2023-01-07T11:30:07.581Z,9.32
2023-01-07T11:32:40.325Z,9.28
2023-01-07T11:35:07.666Z,9.36
2023-01-07T11:37:34.030Z,9.42
2023-01-07T11:40:01.088Z,9.43
2023-01-07T11:42:39.704Z,9.46
2023-01-07T11:45:13.757Z,9.36
2023-01-07T11:47:40.527Z,9.15
2023-01-07T11:50:06.982Z,9.07
2023-01-07T11:52:33.325Z,9.31
2023-01-07T11:54:59.724Z,9.29
2023-01-07T11:57:26.232Z,9.41
2023-01-07T12:00:25.406Z,9.54
2023-01-07T12:03:01.628Z,9.44
2023-01-07T12:05:28.531Z,9.51
2023-01-07T12:07:54.922Z,9.63
2023-01-07T12:10:31.608Z,9.52
2023-01-07T12:12:58.143Z,9.62
2023-01-07T12:15:26.531Z,9.72
2023-01-07T12:18:08.526Z,9.78
2023-01-07T12:20:41.104Z,9.69
2023-01-07T12:23:26.372Z,9.53
2023-01-07T12:26:05.275Z,9.57
2023-01-07T12:28:34.686Z,9.50
2023-01-07T12:31:07.142Z,9.50
2023-01-07T12:33:39.473Z,9.69
2023-01-07T12:36:08.708Z,9.58
2023-01-07T12:38:43.030Z,9.29
2023-01-07T12:41:11.604Z,9.42
2023-01-07T12:43:42.664Z,9.61
2023-01-07T12:46:12.245Z,10.09
2023-01-07T12:48:40.788Z,10.21
2023-01-07T12:51:25.885Z,10.42
2023-01-07T12:53:56.416Z,10.47
2023-01-07T12:56:23.919Z,10.43
2023-01-07T12:58:51.604Z,10.44
2023-01-07T13:01:28.665Z,10.38
2023-01-07T13:04:04.157Z,10.22
2023-01-07T13:06:33.499Z,10.19
2023-01-07T13:09:15.624Z,10.16
2023-01-07T13:12:01.144Z,10.11
2023-01-07T13:14:29.166Z,10.18
2023-01-07T13:16:58.938Z,10.12
2023-01-07T13:19:25.417Z,9.79
2023-01-07T13:21:51.836Z,9.79
2023-01-07T13:24:19.134Z,9.64
2023-01-07T13:26:54.900Z,9.62
2023-01-07T13:29:28.680Z,9.56
2023-01-07T13:32:14.009Z,9.57
2023-01-07T13:34:49.666Z,9.51
2023-01-07T13:37:34.979Z,9.28
2023-01-07T13:40:01.289Z,9.14
2023-01-07T13:42:36.976Z,9.22
2023-01-07T13:45:09.449Z,9.20
2023-01-07T13:47:40.483Z,9.30
2023-01-07T13:50:08.763Z,9.00
2023-01-07T13:52:35.321Z,8.92
2023-01-07T13:55:03.173Z,8.90
2023-01-07T13:57:29.454Z,8.89
2023-01-07T13:59:56.073Z,8.85
2023-01-07T14:02:23.235Z,8.79
2023-01-07T14:04:49.573Z,8.77
2023-01-07T14:07:15.903Z,8.60
2023-01-07T14:09:42.635Z,8.77
2023-01-07T14:12:27.772Z,8.96
2023-01-07T14:15:17.415Z,8.99
2023-01-07T14:17:49.531Z,9.04
2023-01-07T14:20:23.727Z,9.11
2023-01-07T14:22:57.082Z,9.19
2023-01-07T14:25:23.363Z,9.20
2023-01-07T14:28:10.165Z,9.13
2023-01-07T14:30:42.522Z,9.06
2023-01-07T14:33:19.361Z,8.86
2023-01-07T14:35:52.161Z,8.84
2023-01-07T14:38:33.727Z,8.72
2023-01-07T14:41:00.074Z,8.64
2023-01-07T14:43:51.638Z,8.57
2023-01-07T14:46:24.060Z,8.45
2023-01-07T14:49:02.913Z,8.48
2023-01-07T14:51:32.066Z,8.54
2023-01-07T14:54:17.675Z,8.46
2023-01-07T14:56:59.454Z,8.39
2023-01-07T14:59:44.488Z,8.27
2023-01-07T15:02:29.903Z,8.28
2023-01-07T15:05:01.703Z,8.18
2023-01-07T15:07:30.207Z,7.97
2023-01-07T15:10:16.478Z,7.85
2023-01-07T15:12:55.166Z,7.87
2023-01-07T15:15:46.823Z,7.70
2023-01-07T15:18:13.184Z,7.52
2023-01-07T15:20:59.086Z,7.51
2023-01-07T15:23:25.381Z,7.43
2023-01-07T15:25:57.117Z,7.32
2023-01-07T15:28:32.819Z,7.18
2023-01-07T15:31:13.567Z,7.09
2023-01-07T15:33:39.899Z,6.99
2023-01-07T15:36:06.601Z,6.67
2023-01-07T15:38:44.617Z,6.34
2023-01-07T15:41:21.351Z,6.07
2023-01-07T15:43:47.681Z,5.99
2023-01-07T15:46:14.030Z,5.97
2023-01-07T15:48:40.463Z,6.01
2023-01-07T15:51:16.391Z,5.84
2023-01-07T15:53:43.477Z,5.46
2023-01-07T15:56:10.527Z,5.30
2023-01-07T15:58:40.122Z,5.31
2023-01-07T16:01:06.987Z,5.30
2023-01-07T16:03:33.431Z,5.08
2023-01-07T16:06:01.489Z,5.02
2023-01-07T16:08:33.574Z,4.89
2023-01-07T16:11:07.165Z,4.66
2023-01-07T16:13:33.621Z,4.61
2023-01-07T16:16:05.443Z,4.46
2023-01-07T16:18:34.643Z,4.38
2023-01-07T16:21:02.687Z,4.44
2023-01-07T16:23:30.414Z,4.76
2023-01-07T16:26:04.616Z,4.74
2023-01-07T16:28:31.684Z,4.41
2023-01-07T16:30:58.096Z,4.29
2023-01-07T16:33:25.126Z,4.22
2023-01-07T16:35:51.463Z,4.21
2023-01-07T16:38:18.314Z,4.20
2023-01-07T16:40:44.804Z,4.20
2023-01-07T16:43:29.449Z,4.09
2023-01-07T16:46:07.947Z,3.87
2023-01-07T16:48:34.266Z,3.75
2023-01-07T16:51:00.586Z,3.73
2023-01-07T16:53:31.170Z,3.74
2023-01-07T16:56:09.137Z,3.59
2023-01-07T16:58:49.512Z,3.48
2023-01-07T17:01:34.269Z,3.52
2023-01-07T17:04:01.293Z,3.47
2023-01-07T17:06:37.974Z,3.24
2023-01-07T17:09:04.345Z,3.19
2023-01-07T17:11:32.889Z,3.26
2023-01-07T17:13:59.307Z,3.26
2023-01-07T17:16:26.731Z,3.21
2023-01-07T17:18:53.169Z,3.27
2023-01-07T17:21:39.114Z,3.42
2023-01-07T17:24:06.265Z,4.48
2023-01-07T17:26:40.761Z,4.39
2023-01-07T17:29:12.849Z,4.21
2023-01-07T17:31:40.253Z,3.93
2023-01-07T17:34:06.874Z,3.84
2023-01-07T17:36:33.326Z,3.66
2023-01-07T17:38:59.650Z,3.31
2023-01-07T17:41:45.186Z,3.30
2023-01-07T17:44:12.883Z,3.18
2023-01-07T17:46:39.572Z,3.09
2023-01-07T17:49:05.990Z,2.87
2023-01-07T17:51:32.774Z,2.79
2023-01-07T17:53:59.196Z,2.93
2023-01-07T17:56:25.784Z,3.15
2023-01-07T17:58:53.980Z,3.09
2023-01-07T18:01:22.640Z,3.08
2023-01-07T18:03:49.306Z,2.82
2023-01-07T18:06:17.446Z,2.88
2023-01-07T18:08:44.567Z,3.01
2023-01-07T18:11:33.872Z,3.07
2023-01-07T18:14:00.305Z,2.83
2023-01-07T18:16:27.086Z,2.61
2023-01-07T18:18:53.712Z,2.47
2023-01-07T18:21:20.035Z,2.27
2023-01-07T18:23:46.526Z,2.22
2023-01-07T18:26:13.007Z,2.07
2023-01-07T18:28:39.720Z,2.05
2023-01-07T18:31:06.085Z,2.02
2023-01-07T18:33:33.738Z,2.10
2023-01-07T18:36:01.018Z,1.98
2023-01-07T18:38:27.356Z,2.04
2023-01-07T18:40:54.035Z,2.01
2023-01-07T18:43:20.413Z,2.02
2023-01-07T18:45:46.836Z,2.01
2023-01-07T18:48:13.603Z,1.86
2023-01-07T18:50:43.298Z,2.01
2023-01-07T18:53:09.718Z,1.79
2023-01-07T18:55:36.805Z,1.61
2023-01-07T18:58:03.226Z,1.62
2023-01-07T19:00:30.439Z,1.61
2023-01-07T19:02:59.816Z,1.64
2023-01-07T19:05:26.891Z,1.70
2023-01-07T19:07:55.252Z,1.63
2023-01-07T19:10:24.903Z,1.59
2023-01-07T19:12:51.312Z,1.63
2023-01-07T19:15:17.817Z,1.68
2023-01-07T19:17:44.181Z,1.54
2023-01-07T19:20:12.425Z,1.43
2023-01-07T19:22:38.889Z,1.42
2023-01-07T19:25:05.976Z,1.43
2023-01-07T19:27:32.295Z,1.42
2023-01-07T19:29:58.623Z,1.33
2023-01-07T19:32:25.000Z,1.29
2023-01-07T19:34:52.929Z,1.28
2023-01-07T19:37:19.376Z,1.26
2023-01-07T19:39:45.794Z,1.19
2023-01-07T19:42:12.748Z,1.15
2023-01-07T19:44:41.112Z,1.25
2023-01-07T19:47:07.689Z,1.30
2023-01-07T19:49:35.592Z,1.33
2023-01-07T19:52:01.983Z,1.31
2023-01-07T19:54:28.412Z,1.58
2023-01-07T19:56:54.757Z,1.37
2023-01-07T19:59:21.118Z,1.21
2023-01-07T20:01:49.571Z,1.20
2023-01-07T20:04:16.011Z,1.13
2023-01-07T20:06:42.534Z,1.11
2023-01-07T20:09:10.790Z,1.06
2023-01-07T20:11:38.314Z,1.10
2023-01-07T20:14:04.735Z,1.03
2023-01-07T20:16:31.118Z,0.89
2023-01-07T20:18:57.514Z,0.92
2023-01-07T20:21:25.383Z,0.89
2023-01-07T20:23:51.940Z,1.18
2023-01-07T20:26:19.133Z,1.26
2023-01-07T20:28:45.517Z,0.93
2023-01-07T20:31:13.477Z,0.82
2023-01-07T20:33:40.076Z,0.60
2023-01-07T20:36:07.433Z,0.68
2023-01-07T20:38:35.495Z,0.86
2023-01-07T20:41:05.341Z,0.72
2023-01-07T20:43:32.105Z,0.66
2023-01-07T20:46:01.902Z,0.47
2023-01-07T20:48:28.292Z,0.45
2023-01-07T20:50:54.760Z,0.49
2023-01-07T20:53:21.226Z,0.35
2023-01-07T20:55:49.323Z,0.42
2023-01-07T20:58:15.896Z,0.37
2023-01-07T21:00:42.410Z,0.39
2023-01-07T21:03:08.851Z,0.51
2023-01-07T21:05:37.108Z,0.53
2023-01-07T21:08:03.751Z,0.77
2023-01-07T21:10:30.069Z,0.55
2023-01-07T21:12:56.429Z,0.59
2023-01-07T21:15:22.854Z,0.65
2023-01-07T21:17:49.214Z,0.67
2023-01-07T21:20:15.620Z,0.81
2023-01-07T21:22:41.978Z,0.91
2023-01-07T21:25:09.460Z,1.04
2023-01-07T21:27:36.032Z,1.00
2023-01-07T21:30:05.634Z,0.90
2023-01-07T21:32:32.700Z,0.78
2023-01-07T21:34:59.090Z,0.82
2023-01-07T21:37:27.285Z,0.77
2023-01-07T21:39:54.694Z,0.82
2023-01-07T21:42:21.037Z,0.90
2023-01-07T21:44:47.820Z,0.95
2023-01-07T21:47:14.145Z,0.81
2023-01-07T21:49:40.540Z,0.77
2023-01-07T21:52:07.019Z,0.70
2023-01-07T21:54:34.431Z,0.75
2023-01-07T21:57:00.753Z,0.77
2023-01-07T21:59:27.356Z,0.84
2023-01-07T22:01:53.790Z,0.78
2023-01-07T22:04:20.300Z,0.80
2023-01-07T22:06:47.220Z,0.77
2023-01-07T22:09:14.422Z,0.84
2023-01-07T22:11:41.552Z,0.81
2023-01-07T22:14:08.498Z,0.63
2023-01-07T22:16:34.887Z,0.72
2023-01-07T22:19:01.482Z,0.81
2023-01-07T22:21:27.979Z,0.75
2023-01-07T22:23:54.356Z,0.71
2023-01-07T22:26:20.770Z,0.64
2023-01-07T22:28:54.100Z,0.52
2023-01-07T22:31:21.769Z,0.51
2023-01-07T22:33:48.161Z,0.55
2023-01-07T22:36:15.655Z,0.32
2023-01-07T22:38:42.073Z,0.53
2023-01-07T22:41:08.391Z,0.42
2023-01-07T22:43:35.015Z,0.35
2023-01-07T22:46:03.011Z,0.30
2023-01-07T22:48:30.094Z,0.32
2023-01-07T22:50:57.808Z,0.31
2023-01-07T22:53:24.126Z,-0.06
2023-01-07T22:55:50.462Z,0.40
2023-01-07T22:58:16.994Z,0.42
2023-01-07T23:00:46.316Z,0.39
2023-01-07T23:03:12.787Z,0.40
2023-01-07T23:05:39.856Z,0.38
2023-01-07T23:08:06.447Z,0.26
2023-01-07T23:10:32.870Z,0.26
2023-01-07T23:13:00.188Z,0.32
2023-01-07T23:15:26.540Z,0.22
2023-01-07T23:17:52.913Z,0.33
2023-01-07T23:20:19.579Z,0.17
2023-01-07T23:22:46.337Z,0.21
2023-01-07T23:25:12.701Z,0.13
2023-01-07T23:27:39.542Z,0.05
2023-01-07T23:30:06.230Z,-0.04
2023-01-07T23:32:32.589Z,-0.02
2023-01-07T23:34:58.961Z,0.12
2023-01-07T23:37:25.281Z,0.08
2023-01-07T23:39:51.731Z,-0.04
2023-01-07T23:42:18.340Z,0.07
2023-01-07T23:44:44.677Z,0.16
2023-01-07T23:47:10.981Z,0.25
2023-01-07T23:49:37.916Z,0.15
2023-01-07T23:52:04.297Z,0.17
2023-01-07T23:54:30.659Z,0.26
2023-01-07T23:56:57.075Z,0.23
2023-01-07T23:59:23.577Z,0.32
